createdAt,value
2022-08-03T00:01:31.692Z,93502.31
2022-08-03T00:03:59.132Z,93510.19
2022-08-03T00:06:26.295Z,93509.16
2022-08-03T00:08:53.373Z,93508.88
2022-08-03T00:11:20.778Z,93511.00
2022-08-03T00:13:47.847Z,93509.41
2022-08-03T00:16:15.039Z,93505.19
2022-08-03T00:18:42.658Z,93505.44
2022-08-03T00:21:10.060Z,93507.31
2022-08-03T00:23:52.248Z,93507.00
2022-08-03T00:26:22.110Z,93505.69
2022-08-03T00:28:49.675Z,93512.31
2022-08-03T00:31:16.907Z,93510.00
2022-08-03T00:33:59.150Z,93511.59
2022-08-03T00:36:28.749Z,93504.97
2022-08-03T00:38:56.572Z,93505.22
2022-08-03T00:41:23.961Z,93506.06
2022-08-03T00:43:51.170Z,93501.00
2022-08-03T00:46:21.680Z,93493.88
2022-08-03T00:48:53.740Z,93503.66
2022-08-03T00:51:21.837Z,93499.47
2022-08-03T00:53:49.826Z,93495.25
2022-08-03T00:56:17.336Z,93493.91
2022-08-03T00:58:45.497Z,93491.50
2022-08-03T01:01:12.962Z,93490.72
2022-08-03T01:03:40.371Z,93491.53
2022-08-03T01:06:13.415Z,93493.63
2022-08-03T01:09:00.718Z,93490.47
2022-08-03T01:11:59.956Z,93492.06
2022-08-03T01:14:32.696Z,93492.56
2022-08-03T01:17:21.437Z,93492.59
2022-08-03T01:20:00.718Z,93485.97
2022-08-03T01:22:40.595Z,93494.97
2022-08-03T01:25:19.437Z,93489.66
2022-08-03T01:28:05.217Z,93489.09
2022-08-03T01:30:33.652Z,93492.81
2022-08-03T01:33:04.940Z,93488.88
2022-08-03T01:35:32.399Z,93485.19
2022-08-03T01:38:04.810Z,93482.56
2022-08-03T01:40:34.623Z,93489.66
2022-08-03T01:43:03.295Z,93485.97
2022-08-03T01:45:34.302Z,93485.44
2022-08-03T01:48:02.167Z,93489.63
2022-08-03T01:50:31.032Z,93489.38
2022-08-03T01:52:59.299Z,93488.56
2022-08-03T01:55:32.096Z,93482.97
2022-08-03T01:58:04.898Z,93479.81
2022-08-03T02:00:35.695Z,93483.50
2022-08-03T02:03:05.331Z,93484.06
2022-08-03T02:05:32.985Z,93485.38
2022-08-03T02:08:00.971Z,93488.78
2022-08-03T02:10:34.600Z,93487.47
2022-08-03T02:13:04.550Z,93486.41
2022-08-03T02:15:33.746Z,93480.84
2022-08-03T02:18:02.068Z,93483.09
2022-08-03T02:20:33.288Z,93478.25
2022-08-03T02:23:00.772Z,93478.28
2022-08-03T02:25:28.792Z,93477.03
2022-08-03T02:27:58.114Z,93471.03
2022-08-03T02:30:29.998Z,93470.59
2022-08-03T02:32:58.129Z,93472.47
2022-08-03T02:35:27.598Z,93470.09
2022-08-03T02:37:58.442Z,93467.97
2022-08-03T02:40:28.277Z,93472.41
2022-08-03T02:42:58.051Z,93470.09
2022-08-03T02:45:27.104Z,93476.53
2022-08-03T02:47:57.126Z,93479.75
2022-08-03T02:50:25.422Z,93480.78
2022-08-03T02:52:54.221Z,93478.50
2022-08-03T02:55:23.055Z,93479.59
2022-08-03T02:57:51.024Z,93482.50
2022-08-03T03:00:27.687Z,93485.53
2022-08-03T03:02:59.595Z,93487.88
2022-08-03T03:05:56.116Z,93488.00
2022-08-03T03:08:17.922Z,93492.69
2022-08-03T03:10:47.384Z,93500.09
2022-08-03T03:13:15.679Z,93499.00
2022-08-03T03:15:45.373Z,93494.78
2022-08-03T03:18:13.173Z,93501.47
2022-08-03T03:20:41.220Z,93501.50
2022-08-03T03:23:09.444Z,93501.88
2022-08-03T03:25:38.000Z,93499.63
2022-08-03T03:28:06.600Z,93505.84
2022-08-03T03:30:34.495Z,93506.84
2022-08-03T03:33:03.043Z,93505.91
2022-08-03T03:35:30.265Z,93507.37
2022-08-03T03:37:58.068Z,93506.97
2022-08-03T03:40:25.651Z,93507.63
2022-08-03T03:42:53.005Z,93508.91
2022-08-03T03:45:21.099Z,93511.16
2022-08-03T03:47:48.635Z,93514.87
2022-08-03T03:50:16.032Z,93513.31
2022-08-03T03:52:43.243Z,93509.41
2022-08-03T03:55:10.913Z,93517.19
2022-08-03T03:57:38.159Z,93522.59
2022-08-03T04:00:06.359Z,93518.69
2022-08-03T04:02:33.351Z,93518.91
2022-08-03T04:05:19.416Z,93519.50
2022-08-03T04:08:14.672Z,93523.41
2022-08-03T04:10:58.794Z,93521.69
2022-08-03T04:13:32.283Z,93527.19
2022-08-03T04:16:00.108Z,93520.53
2022-08-03T04:18:28.352Z,93527.19
2022-08-03T04:20:57.347Z,93526.62
2022-08-03T04:23:26.858Z,93524.94
2022-08-03T04:25:54.994Z,93513.66
2022-08-03T04:28:30.468Z,93524.78
2022-08-03T04:31:03.677Z,93525.94
2022-08-03T04:33:32.752Z,93524.00
2022-08-03T04:36:03.615Z,93519.06
2022-08-03T04:38:38.199Z,93531.00
2022-08-03T04:41:06.752Z,93525.44
2022-08-03T04:43:34.808Z,93535.59
2022-08-03T04:46:02.949Z,93531.81
2022-08-03T04:48:30.486Z,93534.72
2022-08-03T04:50:57.756Z,93534.84
2022-08-03T04:53:25.004Z,93534.59
2022-08-03T04:55:52.547Z,93538.84
2022-08-03T04:58:19.699Z,93530.47
2022-08-03T05:00:51.173Z,93531.03
2022-08-03T05:03:20.309Z,93538.44
2022-08-03T05:05:52.325Z,93540.59
2022-08-03T05:08:28.021Z,93534.25
2022-08-03T05:10:58.905Z,93526.88
2022-08-03T05:13:27.112Z,93533.75
2022-08-03T05:15:54.298Z,93541.72
2022-08-03T05:18:21.584Z,93539.06
2022-08-03T05:20:49.201Z,93534.03
2022-08-03T05:23:16.465Z,93547.75
2022-08-03T05:25:49.698Z,93540.59
2022-08-03T05:28:17.929Z,93542.44
2022-08-03T05:30:45.829Z,93543.44
2022-08-03T05:33:13.099Z,93537.28
2022-08-03T05:35:57.265Z,93539.72
2022-08-03T05:38:28.761Z,93540.22
2022-08-03T05:41:22.475Z,93538.88
2022-08-03T05:43:50.488Z,93537.50
2022-08-03T05:46:18.288Z,93542.41
2022-08-03T05:48:45.724Z,93544.16
2022-08-03T05:51:13.757Z,93545.09
2022-08-03T05:53:42.170Z,93545.22
2022-08-03T05:56:13.746Z,93544.47
2022-08-03T05:58:43.785Z,93552.31
2022-08-03T06:01:11.037Z,93551.44
2022-08-03T06:03:38.713Z,93554.78
2022-08-03T06:06:05.934Z,93553.31
2022-08-03T06:08:33.253Z,93546.59
2022-08-03T06:11:00.859Z,93552.22
2022-08-03T06:13:28.023Z,93550.16
2022-08-03T06:15:55.574Z,93546.75
2022-08-03T06:18:24.747Z,93550.19
2022-08-03T06:20:52.460Z,93549.66
2022-08-03T06:23:20.039Z,93548.75
2022-08-03T06:25:47.817Z,93548.84
2022-08-03T06:28:42.635Z,93547.19
2022-08-03T06:31:03.751Z,93540.94
2022-08-03T06:34:30.417Z,93532.84
2022-08-03T06:36:21.410Z,93543.81
2022-08-03T06:38:48.670Z,93533.53
2022-08-03T06:41:15.955Z,93530.06
2022-08-03T06:44:02.590Z,93528.72
2022-08-03T06:46:30.935Z,93530.34
2022-08-03T06:48:58.495Z,93526.69
2022-08-03T06:52:06.154Z,93524.44
2022-08-03T06:54:13.828Z,93526.78
2022-08-03T06:56:41.030Z,93520.69
2022-08-03T06:59:08.199Z,93517.41
2022-08-03T07:01:35.788Z,93523.28
2022-08-03T07:04:03.142Z,93518.62
2022-08-03T07:06:31.728Z,93512.75
2022-08-03T07:08:59.984Z,93522.72
2022-08-03T07:11:28.801Z,93513.38
2022-08-03T07:13:56.654Z,93517.81
2022-08-03T07:16:24.225Z,93519.97
2022-08-03T07:18:51.529Z,93515.56
2022-08-03T07:21:18.687Z,93514.28
2022-08-03T07:23:46.188Z,93515.34
2022-08-03T07:26:13.531Z,93519.19
2022-08-03T07:28:40.849Z,93510.13
2022-08-03T07:31:08.378Z,93511.19
2022-08-03T07:33:35.524Z,93510.78
2022-08-03T07:36:02.772Z,93502.94
2022-08-03T07:38:30.366Z,93504.19
2022-08-03T07:40:57.786Z,93506.25
2022-08-03T07:43:25.475Z,93507.63
2022-08-03T07:45:53.087Z,93496.47
2022-08-03T07:48:20.243Z,93496.72
2022-08-03T07:50:47.633Z,93501.75
2022-08-03T07:53:15.140Z,93501.69
2022-08-03T07:55:42.604Z,93496.62
2022-08-03T07:58:12.560Z,93496.44
2022-08-03T08:00:40.249Z,93503.03
2022-08-03T08:03:08.036Z,93500.16
2022-08-03T08:05:35.283Z,93501.84
2022-08-03T08:08:02.992Z,93498.16
2022-08-03T08:10:30.509Z,93510.62
2022-08-03T08:12:57.840Z,93502.88
2022-08-03T08:15:25.368Z,93507.37
2022-08-03T08:17:54.718Z,93507.97
2022-08-03T08:20:28.452Z,93511.06
2022-08-03T08:23:03.573Z,93510.44
2022-08-03T08:25:39.611Z,93506.78
2022-08-03T08:28:28.994Z,93508.75
2022-08-03T08:30:54.414Z,93508.09
2022-08-03T08:33:23.481Z,93508.75
2022-08-03T08:35:52.044Z,93509.63
2022-08-03T08:38:19.393Z,93502.75
2022-08-03T08:40:47.919Z,93504.53
2022-08-03T08:43:15.197Z,93503.31
2022-08-03T08:45:42.673Z,93503.41
2022-08-03T08:48:11.213Z,93504.31
2022-08-03T08:50:39.052Z,93504.84
2022-08-03T08:53:09.855Z,93498.94
2022-08-03T08:55:58.789Z,93495.59
2022-08-03T08:58:28.818Z,93496.06
2022-08-03T09:00:56.472Z,93492.25
2022-08-03T09:03:29.304Z,93497.97
2022-08-03T09:06:00.198Z,93499.72
2022-08-03T09:08:27.478Z,93499.97
2022-08-03T09:10:54.660Z,93499.97
2022-08-03T09:13:22.193Z,93502.06
2022-08-03T09:15:52.741Z,93506.69
2022-08-03T09:18:32.322Z,93502.84
2022-08-03T09:21:36.018Z,93509.56
2022-08-03T09:24:06.278Z,93508.63
2022-08-03T09:26:37.301Z,93506.56
2022-08-03T09:29:12.850Z,93503.66
2022-08-03T09:31:44.323Z,93494.41
2022-08-03T09:34:17.145Z,93500.75
2022-08-03T09:36:45.999Z,93495.03
2022-08-03T09:39:14.804Z,93497.72
2022-08-03T09:41:44.601Z,93488.69
2022-08-03T09:44:25.157Z,93487.59
2022-08-03T09:46:56.863Z,93496.88
2022-08-03T09:49:25.342Z,93494.28
2022-08-03T09:52:32.900Z,93487.59
2022-08-03T09:54:41.259Z,93495.75
2022-08-03T09:57:08.680Z,93494.34
2022-08-03T09:59:36.149Z,93493.00
2022-08-03T10:02:20.447Z,93482.84
2022-08-03T10:04:49.033Z,93484.22
2022-08-03T10:07:16.495Z,93486.22
2022-08-03T10:09:57.453Z,93486.25
2022-08-03T10:12:25.356Z,93479.06
2022-08-03T10:14:53.018Z,93477.00
2022-08-03T10:17:23.647Z,93477.47
2022-08-03T10:19:51.224Z,93475.97
2022-08-03T10:22:26.925Z,93473.97
2022-08-03T10:25:02.937Z,93476.94
2022-08-03T10:27:51.287Z,93481.38
2022-08-03T10:30:18.915Z,93471.06
2022-08-03T10:33:00.252Z,93469.37
2022-08-03T10:35:29.749Z,93466.53
2022-08-03T10:38:08.294Z,93464.56
2022-08-03T10:40:57.244Z,93465.41
2022-08-03T10:43:34.236Z,93472.19
2022-08-03T10:46:03.612Z,93471.72
2022-08-03T10:48:31.627Z,93472.19
2022-08-03T10:50:58.925Z,93456.88
2022-08-03T10:53:40.527Z,93451.28
2022-08-03T10:56:49.852Z,93463.31
2022-08-03T10:59:27.583Z,93467.59
2022-08-03T11:01:59.813Z,93455.59
2022-08-03T11:04:30.368Z,93453.28
2022-08-03T11:07:18.485Z,93453.19
2022-08-03T11:09:50.692Z,93454.31
2022-08-03T11:12:37.499Z,93456.97
2022-08-03T11:15:07.139Z,93465.06
2022-08-03T11:17:45.781Z,93467.38
2022-08-03T11:20:52.430Z,93456.31
2022-08-03T11:24:03.264Z,93458.12
2022-08-03T11:26:29.029Z,93446.37
2022-08-03T11:29:16.123Z,93443.28
2022-08-03T11:31:50.385Z,93452.00
2022-08-03T11:34:18.309Z,93443.69
2022-08-03T11:37:12.100Z,93451.75
2022-08-03T11:39:46.750Z,93447.09
2022-08-03T11:42:23.542Z,93435.31
2022-08-03T11:44:51.140Z,93429.75
2022-08-03T11:47:20.545Z,93435.62
2022-08-03T11:49:48.466Z,93440.00
2022-08-03T11:52:16.693Z,93446.50
2022-08-03T11:54:44.983Z,93446.34
2022-08-03T11:57:12.639Z,93445.16
2022-08-03T11:59:39.887Z,93446.91
2022-08-03T12:02:08.184Z,93437.31
2022-08-03T12:04:58.441Z,93435.25
2022-08-03T12:08:04.759Z,93428.72
2022-08-03T12:10:15.874Z,93433.75
2022-08-03T12:12:46.287Z,93424.94
2022-08-03T12:15:14.079Z,93425.28
2022-08-03T12:17:41.919Z,93424.47
2022-08-03T12:20:10.066Z,93422.13
2022-08-03T12:22:39.300Z,93429.44
2022-08-03T12:25:07.513Z,93426.81
2022-08-03T12:27:35.470Z,93426.81
2022-08-03T12:30:03.199Z,93433.69
2022-08-03T12:32:31.485Z,93429.16
2022-08-03T12:35:04.695Z,93423.97
2022-08-03T12:37:32.668Z,93430.47
2022-08-03T12:40:09.467Z,93434.09
2022-08-03T12:42:39.268Z,93439.25
2022-08-03T12:45:19.501Z,93445.97
2022-08-03T12:48:00.671Z,93450.56
2022-08-03T12:50:32.291Z,93446.69
2022-08-03T12:53:00.724Z,93451.75
2022-08-03T12:55:56.529Z,93455.59
2022-08-03T12:58:34.227Z,93465.31
2022-08-03T13:01:04.992Z,93467.25
2022-08-03T13:03:42.301Z,93463.19
2022-08-03T13:06:17.174Z,93445.59
2022-08-03T13:08:46.173Z,93449.75
2022-08-03T13:11:57.954Z,93445.53
2022-08-03T13:14:16.827Z,93445.66
2022-08-03T13:16:48.588Z,93446.13
2022-08-03T13:19:16.307Z,93448.16
2022-08-03T13:22:01.674Z,93451.66
2022-08-03T13:24:32.340Z,93451.22
2022-08-03T13:27:00.024Z,93450.12
2022-08-03T13:29:27.244Z,93451.66
2022-08-03T13:31:55.965Z,93442.91
2022-08-03T13:34:24.123Z,93450.66
2022-08-03T13:37:09.233Z,93442.88
2022-08-03T13:39:58.078Z,93446.87
2022-08-03T13:42:28.300Z,93438.66
2022-08-03T13:44:55.943Z,93439.97
2022-08-03T13:47:23.357Z,93435.28
2022-08-03T13:50:00.287Z,93434.72
2022-08-03T13:52:32.048Z,93433.03
2022-08-03T13:55:00.161Z,93438.66
2022-08-03T13:58:03.905Z,93442.06
2022-08-03T14:00:26.461Z,93439.84
2022-08-03T14:03:15.315Z,93436.63
2022-08-03T14:05:44.251Z,93441.09
2022-08-03T14:08:12.345Z,93424.88
2022-08-03T14:10:40.824Z,93423.78
2022-08-03T14:13:08.226Z,93424.47
2022-08-03T14:15:37.537Z,93424.13
2022-08-03T14:18:12.780Z,93425.25
2022-08-03T14:20:48.759Z,93421.53
2022-08-03T14:23:18.963Z,93424.69
2022-08-03T14:25:51.629Z,93428.47
2022-08-03T14:28:23.810Z,93424.88
2022-08-03T14:30:52.087Z,93423.53
2022-08-03T14:33:19.405Z,93424.88
2022-08-03T14:35:46.636Z,93423.44
2022-08-03T14:38:14.419Z,93419.31
2022-08-03T14:40:41.860Z,93416.47
2022-08-03T14:43:09.313Z,93418.47
2022-08-03T14:45:36.876Z,93414.81
2022-08-03T14:50:32.570Z,93416.81
2022-08-03T14:50:55.647Z,93418.16
2022-08-03T14:53:23.183Z,93418.16
2022-08-03T14:55:51.915Z,93409.56
2022-08-03T14:58:21.443Z,93406.41
2022-08-03T15:00:49.949Z,93408.34
2022-08-03T15:03:17.706Z,93400.72
2022-08-03T15:05:45.555Z,93408.00
2022-08-03T15:08:12.864Z,93410.13
2022-08-03T15:10:44.209Z,93403.19
2022-08-03T15:13:16.390Z,93404.97
2022-08-03T15:15:43.678Z,93400.31
2022-08-03T15:18:11.079Z,93396.59
2022-08-03T15:20:45.008Z,93399.87
2022-08-03T15:23:14.459Z,93398.97
2022-08-03T15:26:07.093Z,93400.87
2022-08-03T15:28:30.264Z,93397.34
2022-08-03T15:30:57.930Z,93398.50
2022-08-03T15:33:26.335Z,93395.25
2022-08-03T15:35:53.866Z,93394.34
2022-08-03T15:38:26.195Z,93391.91
2022-08-03T15:40:57.188Z,93390.84
2022-08-03T15:43:25.090Z,93387.41
2022-08-03T15:46:19.456Z,93399.78
2022-08-03T15:48:42.040Z,93394.13
2022-08-03T15:51:09.406Z,93406.75
2022-08-03T15:53:37.279Z,93406.53
2022-08-03T15:56:10.444Z,93406.53
2022-08-03T15:59:10.003Z,93411.78
2022-08-03T16:01:27.836Z,93420.16
2022-08-03T16:03:55.494Z,93424.59
2022-08-03T16:06:29.807Z,93434.94
2022-08-03T16:09:24.000Z,93432.06
2022-08-03T16:11:54.433Z,93447.03
2022-08-03T16:14:34.818Z,93450.22
2022-08-03T16:17:05.197Z,93459.34
2022-08-03T16:19:32.801Z,93478.72
2022-08-03T16:22:00.887Z,93473.25
2022-08-03T16:24:28.440Z,93462.31
2022-08-03T16:26:56.613Z,93466.06
2022-08-03T16:29:24.153Z,93471.63
2022-08-03T16:31:52.453Z,93477.16
2022-08-03T16:34:21.247Z,93474.03
2022-08-03T16:36:48.549Z,93480.47
2022-08-03T16:39:15.910Z,93463.03
2022-08-03T16:41:54.244Z,93465.94
2022-08-03T16:44:29.785Z,93463.59
2022-08-03T16:46:57.876Z,93459.97
2022-08-03T16:49:54.939Z,93461.78
2022-08-03T16:52:13.091Z,93475.06
2022-08-03T16:54:40.864Z,93469.44
2022-08-03T16:57:08.654Z,93478.97
2022-08-03T16:59:37.043Z,93476.97
2022-08-03T17:02:09.880Z,93483.19
2022-08-03T17:04:40.118Z,93478.13
2022-08-03T17:07:08.745Z,93482.22
2022-08-03T17:09:38.205Z,93479.09
2022-08-03T17:12:10.877Z,93481.38
2022-08-03T17:14:38.964Z,93466.12
2022-08-03T17:17:09.666Z,93469.56
2022-08-03T17:19:47.494Z,93477.03
2022-08-03T17:22:24.799Z,93471.06
2022-08-03T17:24:52.867Z,93475.53
2022-08-03T17:28:48.572Z,93471.03
2022-08-03T17:30:13.362Z,93474.28
2022-08-03T17:32:42.762Z,93470.59
2022-08-03T17:35:11.070Z,93475.78
2022-08-03T17:37:57.996Z,93482.50
2022-08-03T17:40:26.086Z,93484.37
2022-08-03T17:42:54.289Z,93484.34
2022-08-03T17:45:21.523Z,93480.53
2022-08-03T17:47:57.414Z,93480.84
2022-08-03T17:50:32.976Z,93486.84
2022-08-03T17:56:07.726Z,93484.41
2022-08-03T17:59:01.905Z,93484.28
2022-08-03T18:02:20.939Z,93484.66
2022-08-03T18:05:16.557Z,93479.78
2022-08-03T18:08:01.514Z,93494.63
2022-08-03T18:10:49.708Z,93491.28
2022-08-03T18:13:24.709Z,93502.84
2022-08-03T18:15:53.729Z,93498.84
2022-08-03T18:18:32.530Z,93501.56
2022-08-03T18:21:09.325Z,93500.06
2022-08-03T18:23:45.008Z,93501.84
2022-08-03T18:26:18.162Z,93505.72
2022-08-03T18:28:45.417Z,93505.84
2022-08-03T18:31:59.933Z,93516.97
2022-08-03T18:34:18.951Z,93518.59
2022-08-03T18:36:56.487Z,93527.12
2022-08-03T18:39:25.814Z,93528.22
2022-08-03T18:41:53.794Z,93526.41
2022-08-03T18:44:52.792Z,93528.22
2022-08-03T18:47:23.802Z,93536.00
2022-08-03T18:49:58.837Z,93531.78
2022-08-03T18:52:31.886Z,93532.41
2022-08-03T18:58:02.071Z,93532.56
2022-08-03T19:00:42.457Z,93533.91
2022-08-03T19:03:23.709Z,93536.13
2022-08-03T19:06:09.474Z,93543.50
2022-08-03T19:08:49.470Z,93540.69
2022-08-03T19:11:22.226Z,93546.03
2022-08-03T19:13:56.877Z,93553.44
2022-08-03T19:16:30.694Z,93548.91
2022-08-03T19:19:00.383Z,93550.56
2022-08-03T19:21:29.805Z,93553.37
2022-08-03T19:24:00.459Z,93556.38
2022-08-03T19:26:31.120Z,93547.19
2022-08-03T19:29:01.545Z,93554.44
2022-08-03T19:31:34.811Z,93556.59
2022-08-03T19:34:04.669Z,93550.56
2022-08-03T19:36:40.588Z,93553.75
2022-08-03T19:39:11.200Z,93561.25
2022-08-03T19:41:42.592Z,93566.34
2022-08-03T19:44:11.679Z,93564.84
2022-08-03T19:46:43.678Z,93557.38
2022-08-03T19:49:15.143Z,93561.28
2022-08-03T19:52:02.345Z,93556.66
2022-08-03T19:54:52.914Z,93562.63
2022-08-03T19:57:24.044Z,93557.75
2022-08-03T19:59:52.840Z,93552.00
2022-08-03T20:02:27.145Z,93551.34
2022-08-03T20:04:57.293Z,93558.94
2022-08-03T20:07:25.782Z,93559.34
2022-08-03T20:09:54.586Z,93551.69
2022-08-03T20:12:28.846Z,93562.66
2022-08-03T20:14:59.411Z,93558.00
2022-08-03T20:17:54.779Z,93553.37
2022-08-03T20:20:18.702Z,93552.31
2022-08-03T20:22:48.267Z,93554.97
2022-08-03T20:25:20.655Z,93555.72
2022-08-03T20:28:06.706Z,93561.16
2022-08-03T20:30:35.819Z,93561.44
2022-08-03T20:33:05.001Z,93556.94
2022-08-03T20:35:34.494Z,93557.59
2022-08-03T20:38:01.766Z,93559.28
2022-08-03T20:40:29.351Z,93562.41
2022-08-03T20:42:56.624Z,93557.56
2022-08-03T20:45:58.974Z,93563.91
2022-08-03T20:48:11.489Z,93566.97
2022-08-03T20:50:43.738Z,93572.53
2022-08-03T20:53:12.757Z,93572.78
2022-08-03T20:55:47.752Z,93575.25
2022-08-03T20:58:28.430Z,93576.06
2022-08-03T21:00:57.019Z,93572.19
2022-08-03T21:03:24.180Z,93573.63
2022-08-03T21:06:10.086Z,93573.22
2022-08-03T21:08:46.853Z,93580.59
2022-08-03T21:11:19.286Z,93577.97
2022-08-03T21:13:00.961Z,93539.25
2022-08-03T21:13:03.947Z,93482.09
2022-08-03T21:13:52.110Z,93588.50
2022-08-03T21:16:20.204Z,93588.44
2022-08-03T21:18:51.819Z,93590.94
2022-08-03T21:21:20.614Z,93584.53
2022-08-03T21:23:55.240Z,93598.72
2022-08-03T21:26:24.254Z,93597.09
2022-08-03T21:28:52.668Z,93600.25
2022-08-03T21:31:24.322Z,93599.91
2022-08-03T21:33:53.332Z,93594.69
2022-08-03T21:36:20.531Z,93608.03
2022-08-03T21:38:56.229Z,93610.34
2022-08-03T21:41:25.389Z,93604.91
2022-08-03T21:43:52.792Z,93607.53
2022-08-03T21:46:20.152Z,93611.09
2022-08-03T21:48:48.676Z,93611.44
2022-08-03T21:51:17.657Z,93617.00
2022-08-03T21:54:03.231Z,93613.56
2022-08-03T21:56:41.516Z,93613.28
2022-08-03T21:59:09.856Z,93604.53
2022-08-03T22:01:41.593Z,93618.12
2022-08-03T22:04:11.865Z,93615.97
2022-08-03T22:06:42.537Z,93614.09
2022-08-03T22:09:11.837Z,93617.34
2022-08-03T22:11:39.204Z,93617.56
2022-08-03T22:14:06.443Z,93619.22
2022-08-03T22:16:34.315Z,93611.19
2022-08-03T22:19:01.564Z,93615.72
2022-08-03T22:21:35.803Z,93614.44
2022-08-03T22:24:05.201Z,93616.78
2022-08-03T22:26:35.389Z,93614.16
2022-08-03T22:29:06.254Z,93614.47
2022-08-03T22:31:58.258Z,93614.22
2022-08-03T22:34:26.811Z,93612.41
2022-08-03T22:36:57.242Z,93622.19
2022-08-03T22:39:29.066Z,93613.25
2022-08-03T22:41:57.902Z,93611.38
2022-08-03T22:44:27.413Z,93614.00
2022-08-03T22:46:55.571Z,93614.81
2022-08-03T22:49:23.263Z,93615.84
2022-08-03T22:51:53.754Z,93617.69
2022-08-03T22:54:21.107Z,93612.63
2022-08-03T22:56:49.469Z,93612.91
2022-08-03T22:59:39.153Z,93608.94
2022-08-03T23:02:20.711Z,93614.53
2022-08-03T23:04:52.435Z,93610.56
2022-08-03T23:07:22.179Z,93603.41
2022-08-03T23:09:49.882Z,93611.91
2022-08-03T23:12:20.483Z,93608.19
2022-08-03T23:14:53.474Z,93606.09
2022-08-03T23:17:22.651Z,93612.19
2022-08-03T23:19:51.442Z,93604.00
2022-08-03T23:22:29.640Z,93597.16
2022-08-03T23:24:59.436Z,93606.13
2022-08-03T23:27:27.558Z,93606.37
2022-08-03T23:29:57.663Z,93608.16
2022-08-03T23:32:29.547Z,93605.34
2022-08-03T23:35:17.358Z,93609.81
2022-08-03T23:38:04.257Z,93617.19
2022-08-03T23:40:33.342Z,93607.72
2022-08-03T23:43:01.616Z,93605.06
2022-08-03T23:45:31.417Z,93605.59
2022-08-03T23:47:58.546Z,93611.41
2022-08-03T23:50:27.929Z,93598.19
2022-08-03T23:53:12.192Z,93605.59
2022-08-03T23:55:54.796Z,93607.16
2022-08-03T23:58:24.942Z,93612.72
